Battle Lake Municipal Airport


Codes: 00MN/
Name: Battle Lake Municipal Airport
City: Battle Lake
Country: United States
Elevation: 1365 ft.

Photos at Battle Lake Municipal Airport


   Photos courtesy of SpottingLog. You can add your own sightings and photos by signing up for a free trial today.



No photos found.

Weather at Battle Lake Municipal Airport


Time (UTC)DescriptionTempratureWindCloud coverageVisibilityPressureHumidity
17-Jun-2024 06:00Broken Clouds13°C2 mph, NW67%10000m1009hPa77%
17-Jun-2024 09:00Broken Clouds13°C7 mph, NW70%10000m1009hPa73%
17-Jun-2024 12:00Broken Clouds14°C2 mph, SE80%10000m1010hPa71%
17-Jun-2024 15:00Overcast Clouds14°C7 mph, SE100%10000m1011hPa75%
17-Jun-2024 18:00Overcast Clouds16°C9 mph, SE100%10000m1011hPa71%
17-Jun-2024 21:00Light Rain14°C7 mph, E100%10000m1009hPa89%
18-Jun-2024 00:00Light Rain14°C11 mph, E100%10000m1007hPa94%
18-Jun-2024 03:00Light Rain15°C13 mph, E100%10000m1004hPa97%
18-Jun-2024 06:00Moderate Rain17°C16 mph, SE100%90m1001hPa98%
18-Jun-2024 09:00Moderate Rain20°C13 mph, S100%7271m998hPa99%
18-Jun-2024 12:00Moderate Rain21°C13 mph, S95%6490m998hPa96%
18-Jun-2024 15:00Moderate Rain23°C18 mph, S100%10000m998hPa90%
18-Jun-2024 18:00Light Rain26°C18 mph, SW92%6851m998hPa86%
18-Jun-2024 21:00Light Rain16°C16 mph, NW80%363m1002hPa96%
19-Jun-2024 00:00Light Rain12°C16 mph, NW90%324m1008hPa98%
19-Jun-2024 03:00Overcast Clouds11°C13 mph, NW100%470m1012hPa97%
19-Jun-2024 06:00Overcast Clouds11°C13 mph, NW100%10000m1016hPa95%
19-Jun-2024 09:00Overcast Clouds10°C7 mph, NW93%10000m1020hPa94%
19-Jun-2024 12:00Overcast Clouds9°C4 mph, NW97%10000m1023hPa93%
19-Jun-2024 15:00Overcast Clouds14°C9 mph, NW100%10000m1024hPa70%
19-Jun-2024 18:00Overcast Clouds17°C7 mph, N100%10000m1026hPa59%
19-Jun-2024 21:00Overcast Clouds18°C4 mph, NE98%10000m1026hPa56%
20-Jun-2024 00:00Broken Clouds18°C4 mph, E75%10000m1025hPa63%
20-Jun-2024 03:00Broken Clouds14°C4 mph, SE69%10000m1027hPa77%
20-Jun-2024 06:00Broken Clouds13°C4 mph, E81%10000m1027hPa78%
20-Jun-2024 09:00Overcast Clouds13°C7 mph, E93%10000m1027hPa78%
20-Jun-2024 12:00Broken Clouds13°C7 mph, E71%10000m1027hPa80%
20-Jun-2024 15:00Light Rain14°C9 mph, SE100%10000m1028hPa88%
20-Jun-2024 18:00Light Rain14°C13 mph, SE100%10000m1026hPa92%
20-Jun-2024 21:00Light Rain14°C9 mph, E100%10000m1025hPa94%
21-Jun-2024 00:00Light Rain14°C11 mph, E100%10000m1023hPa98%
21-Jun-2024 03:00Light Rain14°C9 mph, E100%786m1023hPa99%
21-Jun-2024 06:00Light Rain15°C4 mph, SE100%344m1022hPa99%
21-Jun-2024 09:00Moderate Rain16°C4 mph, E100%119m1020hPa99%
21-Jun-2024 12:00Light Rain15°C9 mph, E100%114m1018hPa99%
21-Jun-2024 15:00Moderate Rain18°C7 mph, N100%0m1018hPa99%
21-Jun-2024 18:00Light Rain23°C9 mph, S100%10000m1015hPa86%
21-Jun-2024 21:00Moderate Rain24°C7 mph, S100%6910m1013hPa85%
22-Jun-2024 00:00Moderate Rain23°C9 mph, S100%7428m1010hPa90%
22-Jun-2024 03:00Moderate Rain21°C13 mph, S100%4881m1009hPa95%